KEFT

Monroe Municipal Airport

Monroe, Wisconsin, USA
METAR KEFT 211255Z AUTO 33007KT 10SM BKN014 M06/M08 A3045 RMK AO2
Observed Flight Rules
Feb-21 @ 12:55 UTC (24 minutes ago) Marginal Visual Flight Rules
Wind Visibility Clouds
330° at 7 knots 10 miles
  • Broken at 1,400' AGL
Temperatures Readings
Current -6°C / 21°F
Dewpoint -8°C / 18°F
Humidity 86%
Altimeter 30.45" Hg
Pressure 1031 hPa
Elevation 331
METAR KEFT 211255Z AUTO 33007KT 10SM BKN014 M06/M08 A3045 RMK AO2
Observed Flight Rules
Feb-21 @ 12:55 UTC
(24 minutes ago)
MVFR
Wind Visibility
330° at 7 knots 10 miles
Clouds
  • Broken at 1,400' AGL
Temperature Dewpoint
-6°C / 21°F -8°C / 18°F
Humidity Altimeter Pressure
86% 30.45" Hg 1031 hPa